Página principal
METAR-TAF:

METAR-TAF

Aeroportos :

Aeroporto Internacional de Roma

Roma-Fiumicino, Itália

latitude: 41-48N, longitude: 012-14E, altura: 2 m

Observação actual do tempo

O boletim foi feito há 34 minutos, às 00:20 UTC
Vento 5 kt de nordeste
Temperatura 11°C
Humidade 82%
Pressão 1020 hPa
Visibilidade 10 km ou mais
sem nuvens abaixo de 1500 metros e sem cumulonimbus

METAR: LIRF 160020Z 04005KT CAVOK 11/08 Q1020 NOSIG

Hora: 01:54 (00:54 UTC)

Previsão

O boletim foi feito há 1 hora e 54 minutos, às 23:00 UTC
Previsão válida de 16 às 00 UTC a 17 às 06 UTC
Vento 6 kt com direcção variável
Visibilidade 10 km ou mais
sem nuvens abaixo de 1500 metros e sem cumulonimbus
Temporariamente
de 16 às 00 UTC a 16 às 06 UTC
Visibilidade: 3000 m
neblina
Tornando-se
de 16 às 06 UTC a 16 às 08 UTC
Vento 12 kt de nordeste

TAF: LIRF 152300Z 1600/1706 VRB06KT CAVOK TEMPO 1600/1606 3000 BR BECMG 1606/1608 04012KT

Observações e previsões do tempo de mais de 4000 aeroportos (mensagens METAR e TAF).

As estações disponíveis são os pontos amarelos e vermelhos sobre o mapa.

Mova o rato sobre o mapa para ver o nome da estação.

Depois clique no ponto para visualizar as observações e previsões meteorológicas.

Para alterar o mapa : clique nos botões verdes com uma cruz preta para aumentar o zoom; no botão verde com uma pitada de zoom; ou nas setas verdes para mapas adjacentes.


METAR-TAF: